sensor_id;sensor_type;location;lat;lon;timestamp;temperature;humidity
52181;DHT22;38158;53.338;6.514;2022-08-14T00:02:03;19.60;99.90
52181;DHT22;38158;53.338;6.514;2022-08-14T00:04:34;19.60;99.90
52181;DHT22;38158;53.338;6.514;2022-08-14T00:07:00;19.50;99.90
52181;DHT22;38158;53.338;6.514;2022-08-14T00:09:25;19.50;99.90
52181;DHT22;38158;53.338;6.514;2022-08-14T00:11:51;19.50;99.90
52181;DHT22;38158;53.338;6.514;2022-08-14T00:14:17;19.50;99.90
52181;DHT22;38158;53.338;6.514;2022-08-14T00:16:43;19.50;99.90
52181;DHT22;38158;53.338;6.514;2022-08-14T00:19:09;19.40;99.90
52181;DHT22;38158;53.338;6.514;2022-08-14T00:21:35;19.40;99.90
52181;DHT22;38158;53.338;6.514;2022-08-14T00:24:01;19.40;99.90
52181;DHT22;38158;53.338;6.514;2022-08-14T00:26:28;19.50;99.90
52181;DHT22;38158;53.338;6.514;2022-08-14T00:28:54;19.50;99.90
52181;DHT22;38158;53.338;6.514;2022-08-14T00:31:20;19.60;99.90
52181;DHT22;38158;53.338;6.514;2022-08-14T00:33:46;19.50;99.90
52181;DHT22;38158;53.338;6.514;2022-08-14T00:36:12;19.50;99.90
52181;DHT22;38158;53.338;6.514;2022-08-14T00:38:38;19.50;99.90
52181;DHT22;38158;53.338;6.514;2022-08-14T00:41:05;19.50;99.90
52181;DHT22;38158;53.338;6.514;2022-08-14T00:43:33;19.50;99.90
52181;DHT22;38158;53.338;6.514;2022-08-14T00:46:07;19.50;99.90
52181;DHT22;38158;53.338;6.514;2022-08-14T00:48:34;19.40;99.90
52181;DHT22;38158;53.338;6.514;2022-08-14T00:50:59;19.40;99.90
52181;DHT22;38158;53.338;6.514;2022-08-14T00:53:25;19.40;99.90
52181;DHT22;38158;53.338;6.514;2022-08-14T00:55:52;19.40;99.90
52181;DHT22;38158;53.338;6.514;2022-08-14T00:58:21;19.40;99.90
52181;DHT22;38158;53.338;6.514;2022-08-14T01:00:57;19.50;99.90
52181;DHT22;38158;53.338;6.514;2022-08-14T01:03:24;19.50;99.90
52181;DHT22;38158;53.338;6.514;2022-08-14T01:05:51;19.50;99.90
52181;DHT22;38158;53.338;6.514;2022-08-14T01:08:22;19.50;99.90
52181;DHT22;38158;53.338;6.514;2022-08-14T01:10:48;19.50;99.90
52181;DHT22;38158;53.338;6.514;2022-08-14T01:13:22;19.50;99.90
52181;DHT22;38158;53.338;6.514;2022-08-14T01:15:52;19.40;99.90
52181;DHT22;38158;53.338;6.514;2022-08-14T01:18:19;19.30;99.90
52181;DHT22;38158;53.338;6.514;2022-08-14T01:21:08;19.40;99.90
52181;DHT22;38158;53.338;6.514;2022-08-14T01:23:43;19.30;99.90
52181;DHT22;38158;53.338;6.514;2022-08-14T01:26:10;19.30;99.90
52181;DHT22;38158;53.338;6.514;2022-08-14T01:28:37;19.30;99.90
52181;DHT22;38158;53.338;6.514;2022-08-14T01:31:13;19.20;99.90
52181;DHT22;38158;53.338;6.514;2022-08-14T01:33:40;19.20;99.90
52181;DHT22;38158;53.338;6.514;2022-08-14T01:36:10;19.20;99.90
52181;DHT22;38158;53.338;6.514;2022-08-14T01:38:37;19.20;99.90
52181;DHT22;38158;53.338;6.514;2022-08-14T01:41:11;19.10;99.90
52181;DHT22;38158;53.338;6.514;2022-08-14T01:46:21;19.10;99.90
52181;DHT22;38158;53.338;6.514;2022-08-14T01:48:48;19.20;99.90
52181;DHT22;38158;53.338;6.514;2022-08-14T01:51:15;19.20;99.90
52181;DHT22;38158;53.338;6.514;2022-08-14T01:53:44;19.20;99.90
52181;DHT22;38158;53.338;6.514;2022-08-14T01:56:14;19.20;99.90
52181;DHT22;38158;53.338;6.514;2022-08-14T01:58:46;19.20;99.90
52181;DHT22;38158;53.338;6.514;2022-08-14T02:01:17;19.20;99.90
52181;DHT22;38158;53.338;6.514;2022-08-14T02:03:44;19.20;99.90
52181;DHT22;38158;53.338;6.514;2022-08-14T02:06:10;19.20;99.90
52181;DHT22;38158;53.338;6.514;2022-08-14T02:08:37;19.10;99.90
52181;DHT22;38158;53.338;6.514;2022-08-14T02:11:05;19.10;99.90
52181;DHT22;38158;53.338;6.514;2022-08-14T02:14:00;19.10;99.90
52181;DHT22;38158;53.338;6.514;2022-08-14T02:16:29;19.10;99.90
52181;DHT22;38158;53.338;6.514;2022-08-14T02:18:59;19.00;99.90
52181;DHT22;38158;53.338;6.514;2022-08-14T02:21:27;19.10;99.90
52181;DHT22;38158;53.338;6.514;2022-08-14T02:23:54;19.10;99.90
52181;DHT22;38158;53.338;6.514;2022-08-14T02:26:26;19.20;99.90
52181;DHT22;38158;53.338;6.514;2022-08-14T02:28:55;19.10;99.90
52181;DHT22;38158;53.338;6.514;2022-08-14T02:31:27;19.10;99.90
52181;DHT22;38158;53.338;6.514;2022-08-14T02:33:58;19.10;99.90
52181;DHT22;38158;53.338;6.514;2022-08-14T02:36:24;19.10;99.90
52181;DHT22;38158;53.338;6.514;2022-08-14T02:38:50;19.10;99.90
52181;DHT22;38158;53.338;6.514;2022-08-14T02:41:15;19.00;99.90
52181;DHT22;38158;53.338;6.514;2022-08-14T02:43:42;19.00;99.90
52181;DHT22;38158;53.338;6.514;2022-08-14T02:46:09;19.00;99.90
52181;DHT22;38158;53.338;6.514;2022-08-14T02:48:37;19.00;99.90
52181;DHT22;38158;53.338;6.514;2022-08-14T02:51:07;19.00;99.90
52181;DHT22;38158;53.338;6.514;2022-08-14T02:53:32;18.90;99.90
52181;DHT22;38158;53.338;6.514;2022-08-14T02:55:59;18.90;99.90
52181;DHT22;38158;53.338;6.514;2022-08-14T02:58:25;18.80;99.90
52181;DHT22;38158;53.338;6.514;2022-08-14T03:00:52;18.70;99.90
52181;DHT22;38158;53.338;6.514;2022-08-14T03:03:18;18.70;99.90
52181;DHT22;38158;53.338;6.514;2022-08-14T03:05:49;18.70;99.90
52181;DHT22;38158;53.338;6.514;2022-08-14T03:08:16;18.60;99.90
52181;DHT22;38158;53.338;6.514;2022-08-14T03:10:42;18.70;99.90
52181;DHT22;38158;53.338;6.514;2022-08-14T03:13:08;18.70;99.90
52181;DHT22;38158;53.338;6.514;2022-08-14T03:15:34;18.70;99.90
52181;DHT22;38158;53.338;6.514;2022-08-14T03:18:10;18.70;99.90
52181;DHT22;38158;53.338;6.514;2022-08-14T03:20:36;18.60;99.90
52181;DHT22;38158;53.338;6.514;2022-08-14T03:23:01;18.60;99.90
52181;DHT22;38158;53.338;6.514;2022-08-14T03:25:28;18.60;99.90
52181;DHT22;38158;53.338;6.514;2022-08-14T03:28:00;18.60;99.90
52181;DHT22;38158;53.338;6.514;2022-08-14T03:30:29;18.60;99.90
52181;DHT22;38158;53.338;6.514;2022-08-14T03:32:56;18.60;99.90
52181;DHT22;38158;53.338;6.514;2022-08-14T03:35:22;18.60;99.90
52181;DHT22;38158;53.338;6.514;2022-08-14T03:37:49;18.60;99.90
52181;DHT22;38158;53.338;6.514;2022-08-14T03:40:20;18.60;99.90
52181;DHT22;38158;53.338;6.514;2022-08-14T03:42:47;18.60;99.90
52181;DHT22;38158;53.338;6.514;2022-08-14T03:45:13;18.60;99.90
52181;DHT22;38158;53.338;6.514;2022-08-14T03:47:40;18.60;99.90
52181;DHT22;38158;53.338;6.514;2022-08-14T03:50:07;18.50;99.90
52181;DHT22;38158;53.338;6.514;2022-08-14T03:52:34;18.50;99.90
52181;DHT22;38158;53.338;6.514;2022-08-14T03:55:00;18.50;99.90
52181;DHT22;38158;53.338;6.514;2022-08-14T03:57:28;18.50;99.90
52181;DHT22;38158;53.338;6.514;2022-08-14T03:59:57;18.40;99.90
52181;DHT22;38158;53.338;6.514;2022-08-14T04:02:23;18.20;99.90
52181;DHT22;38158;53.338;6.514;2022-08-14T04:04:49;18.10;99.90
52181;DHT22;38158;53.338;6.514;2022-08-14T04:07:15;18.00;99.90
52181;DHT22;38158;53.338;6.514;2022-08-14T04:09:41;17.90;99.90
52181;DHT22;38158;53.338;6.514;2022-08-14T04:12:07;17.90;99.90
52181;DHT22;38158;53.338;6.514;2022-08-14T04:14:33;17.90;99.90
52181;DHT22;38158;53.338;6.514;2022-08-14T04:16:58;17.90;99.90
52181;DHT22;38158;53.338;6.514;2022-08-14T04:19:24;18.00;99.90
52181;DHT22;38158;53.338;6.514;2022-08-14T04:21:50;18.00;99.90
52181;DHT22;38158;53.338;6.514;2022-08-14T04:24:16;17.90;99.90
52181;DHT22;38158;53.338;6.514;2022-08-14T04:26:42;17.90;99.90
52181;DHT22;38158;53.338;6.514;2022-08-14T04:29:10;17.90;99.90
52181;DHT22;38158;53.338;6.514;2022-08-14T04:31:38;17.90;99.90
52181;DHT22;38158;53.338;6.514;2022-08-14T04:34:05;17.90;99.90
52181;DHT22;38158;53.338;6.514;2022-08-14T04:36:31;18.00;99.90
52181;DHT22;38158;53.338;6.514;2022-08-14T04:39:17;18.00;99.90
52181;DHT22;38158;53.338;6.514;2022-08-14T04:42:01;18.10;99.90
52181;DHT22;38158;53.338;6.514;2022-08-14T04:44:45;18.10;99.90
52181;DHT22;38158;53.338;6.514;2022-08-14T04:47:11;18.10;99.90
52181;DHT22;38158;53.338;6.514;2022-08-14T04:49:55;18.10;99.90
52181;DHT22;38158;53.338;6.514;2022-08-14T04:52:23;18.20;99.90
52181;DHT22;38158;53.338;6.514;2022-08-14T04:54:49;18.20;99.90
52181;DHT22;38158;53.338;6.514;2022-08-14T04:57:15;18.20;99.90
52181;DHT22;38158;53.338;6.514;2022-08-14T04:59:40;18.20;99.90
52181;DHT22;38158;53.338;6.514;2022-08-14T05:02:06;18.20;99.90
52181;DHT22;38158;53.338;6.514;2022-08-14T05:04:32;18.20;99.90
52181;DHT22;38158;53.338;6.514;2022-08-14T05:06:58;18.20;99.90
52181;DHT22;38158;53.338;6.514;2022-08-14T05:09:23;18.20;99.90
52181;DHT22;38158;53.338;6.514;2022-08-14T05:11:49;18.30;99.90
52181;DHT22;38158;53.338;6.514;2022-08-14T05:14:15;18.30;99.90
52181;DHT22;38158;53.338;6.514;2022-08-14T05:16:43;18.30;99.90
52181;DHT22;38158;53.338;6.514;2022-08-14T05:19:09;18.30;99.90
52181;DHT22;38158;53.338;6.514;2022-08-14T05:21:39;18.30;99.90
52181;DHT22;38158;53.338;6.514;2022-08-14T05:24:05;18.30;99.90
52181;DHT22;38158;53.338;6.514;2022-08-14T05:26:31;18.40;99.90
52181;DHT22;38158;53.338;6.514;2022-08-14T05:28:57;18.40;99.90
52181;DHT22;38158;53.338;6.514;2022-08-14T05:31:23;18.50;99.90
52181;DHT22;38158;53.338;6.514;2022-08-14T05:33:48;18.60;99.90
52181;DHT22;38158;53.338;6.514;2022-08-14T05:36:14;18.70;99.90
52181;DHT22;38158;53.338;6.514;2022-08-14T05:38:43;18.80;99.90
52181;DHT22;38158;53.338;6.514;2022-08-14T05:41:15;18.90;99.90
52181;DHT22;38158;53.338;6.514;2022-08-14T05:43:43;19.10;99.90
52181;DHT22;38158;53.338;6.514;2022-08-14T05:46:11;19.20;99.90
52181;DHT22;38158;53.338;6.514;2022-08-14T05:48:38;19.40;99.90
52181;DHT22;38158;53.338;6.514;2022-08-14T05:51:04;19.50;99.90
52181;DHT22;38158;53.338;6.514;2022-08-14T05:53:30;19.60;99.90
52181;DHT22;38158;53.338;6.514;2022-08-14T05:55:56;19.70;99.90
52181;DHT22;38158;53.338;6.514;2022-08-14T05:58:23;19.80;99.90
52181;DHT22;38158;53.338;6.514;2022-08-14T06:00:49;19.90;99.90
52181;DHT22;38158;53.338;6.514;2022-08-14T06:03:20;20.00;99.90
52181;DHT22;38158;53.338;6.514;2022-08-14T06:05:48;20.10;99.90
52181;DHT22;38158;53.338;6.514;2022-08-14T06:08:15;20.20;99.90
52181;DHT22;38158;53.338;6.514;2022-08-14T06:10:41;20.30;99.90
52181;DHT22;38158;53.338;6.514;2022-08-14T06:13:07;20.40;99.90
52181;DHT22;38158;53.338;6.514;2022-08-14T06:15:32;20.40;99.90
52181;DHT22;38158;53.338;6.514;2022-08-14T06:17:58;20.50;99.90
52181;DHT22;38158;53.338;6.514;2022-08-14T06:20:24;20.60;99.90
52181;DHT22;38158;53.338;6.514;2022-08-14T06:22:50;20.70;99.90
52181;DHT22;38158;53.338;6.514;2022-08-14T06:25:16;20.80;99.90
52181;DHT22;38158;53.338;6.514;2022-08-14T06:27:47;20.80;99.90
52181;DHT22;38158;53.338;6.514;2022-08-14T06:30:22;20.90;99.90
52181;DHT22;38158;53.338;6.514;2022-08-14T06:32:48;21.00;99.90
52181;DHT22;38158;53.338;6.514;2022-08-14T06:35:15;21.10;99.90
52181;DHT22;38158;53.338;6.514;2022-08-14T06:37:54;21.20;99.90
52181;DHT22;38158;53.338;6.514;2022-08-14T06:40:24;21.30;99.90
52181;DHT22;38158;53.338;6.514;2022-08-14T06:42:50;21.30;99.90
52181;DHT22;38158;53.338;6.514;2022-08-14T06:45:16;21.40;99.90
52181;DHT22;38158;53.338;6.514;2022-08-14T06:47:44;21.50;99.90
52181;DHT22;38158;53.338;6.514;2022-08-14T06:50:13;21.60;99.90
52181;DHT22;38158;53.338;6.514;2022-08-14T06:52:40;21.70;99.90
52181;DHT22;38158;53.338;6.514;2022-08-14T06:55:08;21.80;99.90
52181;DHT22;38158;53.338;6.514;2022-08-14T06:57:36;21.90;99.90
52181;DHT22;38158;53.338;6.514;2022-08-14T07:00:08;22.00;99.90
52181;DHT22;38158;53.338;6.514;2022-08-14T07:02:34;22.10;99.90
52181;DHT22;38158;53.338;6.514;2022-08-14T07:05:19;22.20;99.90
52181;DHT22;38158;53.338;6.514;2022-08-14T07:08:03;22.30;99.90
52181;DHT22;38158;53.338;6.514;2022-08-14T07:10:30;22.40;99.90
52181;DHT22;38158;53.338;6.514;2022-08-14T07:12:56;22.50;99.90
52181;DHT22;38158;53.338;6.514;2022-08-14T07:15:22;22.60;99.90
52181;DHT22;38158;53.338;6.514;2022-08-14T07:17:50;22.70;99.90
52181;DHT22;38158;53.338;6.514;2022-08-14T07:20:16;22.80;99.90
52181;DHT22;38158;53.338;6.514;2022-08-14T07:22:46;22.90;99.90
52181;DHT22;38158;53.338;6.514;2022-08-14T07:25:12;23.00;99.90
52181;DHT22;38158;53.338;6.514;2022-08-14T07:27:39;23.10;99.90
52181;DHT22;38158;53.338;6.514;2022-08-14T07:30:05;23.20;99.90
52181;DHT22;38158;53.338;6.514;2022-08-14T07:32:31;23.30;99.90
52181;DHT22;38158;53.338;6.514;2022-08-14T07:34:56;23.30;99.90
52181;DHT22;38158;53.338;6.514;2022-08-14T07:37:23;23.40;99.90
52181;DHT22;38158;53.338;6.514;2022-08-14T07:39:48;23.50;99.90
52181;DHT22;38158;53.338;6.514;2022-08-14T07:42:14;23.60;99.90
52181;DHT22;38158;53.338;6.514;2022-08-14T07:44:39;23.70;99.90
52181;DHT22;38158;53.338;6.514;2022-08-14T07:47:05;23.80;99.60
52181;DHT22;38158;53.338;6.514;2022-08-14T07:49:31;23.90;99.30
52181;DHT22;38158;53.338;6.514;2022-08-14T07:52:00;24.10;99.40
52181;DHT22;38158;53.338;6.514;2022-08-14T07:54:26;24.10;98.80
52181;DHT22;38158;53.338;6.514;2022-08-14T07:56:51;24.30;97.80
52181;DHT22;38158;53.338;6.514;2022-08-14T07:59:17;24.40;97.10
52181;DHT22;38158;53.338;6.514;2022-08-14T08:01:45;24.40;96.50
52181;DHT22;38158;53.338;6.514;2022-08-14T08:04:11;24.50;96.20
52181;DHT22;38158;53.338;6.514;2022-08-14T08:06:37;24.60;95.80
52181;DHT22;38158;53.338;6.514;2022-08-14T08:09:03;24.60;95.80
52181;DHT22;38158;53.338;6.514;2022-08-14T08:11:34;24.70;95.50
52181;DHT22;38158;53.338;6.514;2022-08-14T08:14:03;24.80;94.60
52181;DHT22;38158;53.338;6.514;2022-08-14T08:16:33;24.90;93.90
52181;DHT22;38158;53.338;6.514;2022-08-14T08:18:59;25.00;93.90
52181;DHT22;38158;53.338;6.514;2022-08-14T08:21:25;25.00;93.80
52181;DHT22;38158;53.338;6.514;2022-08-14T08:23:51;25.10;93.50
52181;DHT22;38158;53.338;6.514;2022-08-14T08:26:18;25.20;93.10
52181;DHT22;38158;53.338;6.514;2022-08-14T08:28:54;25.40;93.50
52181;DHT22;38158;53.338;6.514;2022-08-14T08:31:21;25.40;92.70
52181;DHT22;38158;53.338;6.514;2022-08-14T08:33:50;25.50;93.40
52181;DHT22;38158;53.338;6.514;2022-08-14T08:36:16;25.60;93.20
52181;DHT22;38158;53.338;6.514;2022-08-14T08:38:43;25.60;93.50
52181;DHT22;38158;53.338;6.514;2022-08-14T08:41:12;25.70;93.30
52181;DHT22;38158;53.338;6.514;2022-08-14T08:43:38;25.80;92.80
52181;DHT22;38158;53.338;6.514;2022-08-14T08:46:12;25.90;91.80
52181;DHT22;38158;53.338;6.514;2022-08-14T08:48:48;26.00;90.80
52181;DHT22;38158;53.338;6.514;2022-08-14T08:51:31;26.10;91.00
52181;DHT22;38158;53.338;6.514;2022-08-14T08:53:58;26.20;90.10
52181;DHT22;38158;53.338;6.514;2022-08-14T09:01:41;26.40;89.50
52181;DHT22;38158;53.338;6.514;2022-08-14T09:04:06;26.50;90.10
52181;DHT22;38158;53.338;6.514;2022-08-14T09:06:42;26.50;89.20
52181;DHT22;38158;53.338;6.514;2022-08-14T09:09:25;26.60;87.50
52181;DHT22;38158;53.338;6.514;2022-08-14T09:11:52;26.60;86.90
52181;DHT22;38158;53.338;6.514;2022-08-14T09:14:23;26.60;87.70
52181;DHT22;38158;53.338;6.514;2022-08-14T09:16:51;26.70;86.50
52181;DHT22;38158;53.338;6.514;2022-08-14T09:19:17;26.80;85.90
52181;DHT22;38158;53.338;6.514;2022-08-14T09:21:43;26.90;85.50
52181;DHT22;38158;53.338;6.514;2022-08-14T09:24:13;26.90;84.20
52181;DHT22;38158;53.338;6.514;2022-08-14T09:26:39;26.90;84.10
52181;DHT22;38158;53.338;6.514;2022-08-14T09:29:07;27.00;84.60
52181;DHT22;38158;53.338;6.514;2022-08-14T09:31:35;27.10;83.90
52181;DHT22;38158;53.338;6.514;2022-08-14T09:36:41;27.20;82.00
52181;DHT22;38158;53.338;6.514;2022-08-14T09:45:02;27.40;80.20
52181;DHT22;38158;53.338;6.514;2022-08-14T09:47:45;27.40;79.50
52181;DHT22;38158;53.338;6.514;2022-08-14T09:50:25;27.50;78.50
52181;DHT22;38158;53.338;6.514;2022-08-14T09:53:05;27.60;77.50
52181;DHT22;38158;53.338;6.514;2022-08-14T09:55:33;27.70;77.10
52181;DHT22;38158;53.338;6.514;2022-08-14T09:58:07;27.70;78.40
52181;DHT22;38158;53.338;6.514;2022-08-14T10:00:53;27.80;78.30
52181;DHT22;38158;53.338;6.514;2022-08-14T10:03:33;27.90;77.20
52181;DHT22;38158;53.338;6.514;2022-08-14T10:06:11;27.90;75.90
52181;DHT22;38158;53.338;6.514;2022-08-14T10:11:20;28.00;74.80
52181;DHT22;38158;53.338;6.514;2022-08-14T10:13:48;28.00;74.90
52181;DHT22;38158;53.338;6.514;2022-08-14T10:16:21;28.10;76.10
52181;DHT22;38158;53.338;6.514;2022-08-14T10:19:00;28.10;75.50
52181;DHT22;38158;53.338;6.514;2022-08-14T10:21:26;28.10;74.80
52181;DHT22;38158;53.338;6.514;2022-08-14T10:23:52;28.10;74.50
52181;DHT22;38158;53.338;6.514;2022-08-14T10:26:18;28.10;74.70
52181;DHT22;38158;53.338;6.514;2022-08-14T10:28:51;28.10;74.20
52181;DHT22;38158;53.338;6.514;2022-08-14T10:31:25;28.20;72.70
52181;DHT22;38158;53.338;6.514;2022-08-14T10:34:17;28.30;72.30
52181;DHT22;38158;53.338;6.514;2022-08-14T10:36:45;28.30;71.10
52181;DHT22;38158;53.338;6.514;2022-08-14T10:39:16;28.30;72.90
52181;DHT22;38158;53.338;6.514;2022-08-14T10:41:43;28.30;72.00
52181;DHT22;38158;53.338;6.514;2022-08-14T10:46:52;28.40;71.70
52181;DHT22;38158;53.338;6.514;2022-08-14T10:49:27;28.40;71.60
52181;DHT22;38158;53.338;6.514;2022-08-14T10:51:58;28.30;70.80
52181;DHT22;38158;53.338;6.514;2022-08-14T10:54:42;28.30;72.80
52181;DHT22;38158;53.338;6.514;2022-08-14T10:59:44;28.50;71.50
52181;DHT22;38158;53.338;6.514;2022-08-14T11:04:58;28.60;69.60
52181;DHT22;38158;53.338;6.514;2022-08-14T11:07:25;28.70;71.30
52181;DHT22;38158;53.338;6.514;2022-08-14T11:09:55;28.70;71.00
52181;DHT22;38158;53.338;6.514;2022-08-14T11:12:25;28.70;70.00
52181;DHT22;38158;53.338;6.514;2022-08-14T11:14:55;28.70;71.10
52181;DHT22;38158;53.338;6.514;2022-08-14T11:17:26;28.80;70.60
52181;DHT22;38158;53.338;6.514;2022-08-14T11:19:57;28.90;71.40
52181;DHT22;38158;53.338;6.514;2022-08-14T11:22:28;28.90;70.20
52181;DHT22;38158;53.338;6.514;2022-08-14T11:25:05;28.90;70.10
52181;DHT22;38158;53.338;6.514;2022-08-14T11:27:32;29.00;69.00
52181;DHT22;38158;53.338;6.514;2022-08-14T11:30:01;29.00;68.20
52181;DHT22;38158;53.338;6.514;2022-08-14T11:32:29;29.10;69.20
52181;DHT22;38158;53.338;6.514;2022-08-14T11:34:57;29.20;68.20
52181;DHT22;38158;53.338;6.514;2022-08-14T11:37:23;29.20;68.10
52181;DHT22;38158;53.338;6.514;2022-08-14T11:39:48;29.30;67.30
52181;DHT22;38158;53.338;6.514;2022-08-14T11:42:23;29.40;67.10
52181;DHT22;38158;53.338;6.514;2022-08-14T11:44:49;29.60;66.10
52181;DHT22;38158;53.338;6.514;2022-08-14T11:47:15;29.70;65.30
52181;DHT22;38158;53.338;6.514;2022-08-14T11:49:47;29.70;64.80
52181;DHT22;38158;53.338;6.514;2022-08-14T11:52:17;29.80;63.70
52181;DHT22;38158;53.338;6.514;2022-08-14T11:54:44;29.80;62.80
52181;DHT22;38158;53.338;6.514;2022-08-14T11:57:15;29.90;63.30
52181;DHT22;38158;53.338;6.514;2022-08-14T11:59:41;30.00;63.30
52181;DHT22;38158;53.338;6.514;2022-08-14T12:02:14;30.10;63.00
52181;DHT22;38158;53.338;6.514;2022-08-14T12:04:50;30.20;61.40
52181;DHT22;38158;53.338;6.514;2022-08-14T12:07:17;30.30;60.70
52181;DHT22;38158;53.338;6.514;2022-08-14T12:09:43;30.30;61.30
52181;DHT22;38158;53.338;6.514;2022-08-14T12:12:27;30.20;59.40
52181;DHT22;38158;53.338;6.514;2022-08-14T12:14:58;30.20;60.30
52181;DHT22;38158;53.338;6.514;2022-08-14T12:17:30;30.30;62.10
52181;DHT22;38158;53.338;6.514;2022-08-14T12:20:00;30.20;61.20
52181;DHT22;38158;53.338;6.514;2022-08-14T12:24:59;30.20;61.10
52181;DHT22;38158;53.338;6.514;2022-08-14T12:27:38;30.30;60.20
52181;DHT22;38158;53.338;6.514;2022-08-14T12:30:05;30.40;59.00
52181;DHT22;38158;53.338;6.514;2022-08-14T12:32:37;30.50;59.00
52181;DHT22;38158;53.338;6.514;2022-08-14T12:35:03;30.60;57.40
52181;DHT22;38158;53.338;6.514;2022-08-14T12:37:29;30.70;58.30
52181;DHT22;38158;53.338;6.514;2022-08-14T12:40:14;30.80;57.80
52181;DHT22;38158;53.338;6.514;2022-08-14T12:42:40;30.90;56.30
52181;DHT22;38158;53.338;6.514;2022-08-14T12:45:07;30.80;57.20
52181;DHT22;38158;53.338;6.514;2022-08-14T12:47:33;30.80;57.60
52181;DHT22;38158;53.338;6.514;2022-08-14T12:49:59;30.80;57.20
52181;DHT22;38158;53.338;6.514;2022-08-14T12:52:34;30.70;57.30
52181;DHT22;38158;53.338;6.514;2022-08-14T12:55:13;30.70;56.90
52181;DHT22;38158;53.338;6.514;2022-08-14T12:57:45;30.40;56.30
52181;DHT22;38158;53.338;6.514;2022-08-14T13:00:20;30.40;58.10
52181;DHT22;38158;53.338;6.514;2022-08-14T13:02:48;30.60;57.60
52181;DHT22;38158;53.338;6.514;2022-08-14T13:05:20;30.80;56.70
52181;DHT22;38158;53.338;6.514;2022-08-14T13:07:50;31.00;56.10
52181;DHT22;38158;53.338;6.514;2022-08-14T13:10:18;31.00;56.20
52181;DHT22;38158;53.338;6.514;2022-08-14T13:12:45;30.90;56.10
52181;DHT22;38158;53.338;6.514;2022-08-14T13:15:12;30.90;56.40
52181;DHT22;38158;53.338;6.514;2022-08-14T13:17:50;31.00;54.70
52181;DHT22;38158;53.338;6.514;2022-08-14T13:20:19;31.10;56.50
52181;DHT22;38158;53.338;6.514;2022-08-14T13:22:45;31.10;56.30
52181;DHT22;38158;53.338;6.514;2022-08-14T13:25:16;30.90;56.50
52181;DHT22;38158;53.338;6.514;2022-08-14T13:27:48;30.70;56.30
52181;DHT22;38158;53.338;6.514;2022-08-14T13:30:15;30.70;56.40
52181;DHT22;38158;53.338;6.514;2022-08-14T13:32:43;30.70;56.40
52181;DHT22;38158;53.338;6.514;2022-08-14T13:35:14;30.70;55.90
52181;DHT22;38158;53.338;6.514;2022-08-14T13:37:42;30.60;55.80
52181;DHT22;38158;53.338;6.514;2022-08-14T13:40:10;30.60;56.10
52181;DHT22;38158;53.338;6.514;2022-08-14T13:42:43;30.40;55.90
52181;DHT22;38158;53.338;6.514;2022-08-14T13:45:10;30.40;55.70
52181;DHT22;38158;53.338;6.514;2022-08-14T13:47:36;30.30;56.10
52181;DHT22;38158;53.338;6.514;2022-08-14T13:50:05;30.30;56.30
52181;DHT22;38158;53.338;6.514;2022-08-14T13:52:44;30.20;57.10
52181;DHT22;38158;53.338;6.514;2022-08-14T13:55:11;30.20;57.10
52181;DHT22;38158;53.338;6.514;2022-08-14T13:57:42;30.30;57.20
52181;DHT22;38158;53.338;6.514;2022-08-14T14:00:10;30.30;57.10
52181;DHT22;38158;53.338;6.514;2022-08-14T14:02:41;30.50;57.10
52181;DHT22;38158;53.338;6.514;2022-08-14T14:05:09;30.50;57.10
52181;DHT22;38158;53.338;6.514;2022-08-14T14:07:37;30.30;56.80
52181;DHT22;38158;53.338;6.514;2022-08-14T14:10:07;30.30;56.40
52181;DHT22;38158;53.338;6.514;2022-08-14T14:12:35;30.40;56.30
52181;DHT22;38158;53.338;6.514;2022-08-14T14:15:04;30.50;55.90
52181;DHT22;38158;53.338;6.514;2022-08-14T14:17:30;30.70;55.90
52181;DHT22;38158;53.338;6.514;2022-08-14T14:19:57;30.80;55.30
52181;DHT22;38158;53.338;6.514;2022-08-14T14:22:23;30.80;56.50
52181;DHT22;38158;53.338;6.514;2022-08-14T14:24:50;30.90;55.50
52181;DHT22;38158;53.338;6.514;2022-08-14T14:27:17;30.90;55.00
52181;DHT22;38158;53.338;6.514;2022-08-14T14:29:47;30.80;54.70
52181;DHT22;38158;53.338;6.514;2022-08-14T14:32:15;30.60;55.60
52181;DHT22;38158;53.338;6.514;2022-08-14T14:34:41;30.50;56.10
52181;DHT22;38158;53.338;6.514;2022-08-14T14:37:09;30.40;56.20
52181;DHT22;38158;53.338;6.514;2022-08-14T14:39:36;30.40;56.50
52181;DHT22;38158;53.338;6.514;2022-08-14T14:42:03;30.50;55.70
52181;DHT22;38158;53.338;6.514;2022-08-14T14:44:36;30.60;55.30
52181;DHT22;38158;53.338;6.514;2022-08-14T14:47:13;30.70;55.90
52181;DHT22;38158;53.338;6.514;2022-08-14T14:49:41;30.80;54.60
52181;DHT22;38158;53.338;6.514;2022-08-14T14:52:08;30.70;55.10
52181;DHT22;38158;53.338;6.514;2022-08-14T14:54:34;30.60;55.00
52181;DHT22;38158;53.338;6.514;2022-08-14T14:57:01;30.60;55.60
52181;DHT22;38158;53.338;6.514;2022-08-14T14:59:29;30.70;55.50
52181;DHT22;38158;53.338;6.514;2022-08-14T15:01:59;30.70;55.50
52181;DHT22;38158;53.338;6.514;2022-08-14T15:04:27;30.80;54.50
52181;DHT22;38158;53.338;6.514;2022-08-14T15:06:53;30.80;56.10
52181;DHT22;38158;53.338;6.514;2022-08-14T15:09:19;30.60;55.10
52181;DHT22;38158;53.338;6.514;2022-08-14T15:11:45;30.60;55.20
52181;DHT22;38158;53.338;6.514;2022-08-14T15:14:11;30.70;55.50
52181;DHT22;38158;53.338;6.514;2022-08-14T15:16:36;30.70;55.50
52181;DHT22;38158;53.338;6.514;2022-08-14T15:19:03;30.80;55.30
52181;DHT22;38158;53.338;6.514;2022-08-14T15:21:30;30.80;55.40
52181;DHT22;38158;53.338;6.514;2022-08-14T15:23:55;30.90;55.40
52181;DHT22;38158;53.338;6.514;2022-08-14T15:26:22;30.90;55.00
52181;DHT22;38158;53.338;6.514;2022-08-14T15:28:48;30.90;54.30
52181;DHT22;38158;53.338;6.514;2022-08-14T15:31:14;30.90;54.70
52181;DHT22;38158;53.338;6.514;2022-08-14T15:33:40;30.90;55.00
52181;DHT22;38158;53.338;6.514;2022-08-14T15:36:24;30.80;55.00
52181;DHT22;38158;53.338;6.514;2022-08-14T15:38:54;30.70;55.10
52181;DHT22;38158;53.338;6.514;2022-08-14T15:41:20;30.70;55.90
52181;DHT22;38158;53.338;6.514;2022-08-14T15:43:46;30.70;55.70
52181;DHT22;38158;53.338;6.514;2022-08-14T15:46:11;30.70;55.50
52181;DHT22;38158;53.338;6.514;2022-08-14T15:48:37;30.70;55.00
52181;DHT22;38158;53.338;6.514;2022-08-14T15:51:03;30.70;55.20
52181;DHT22;38158;53.338;6.514;2022-08-14T15:53:29;30.70;55.00
52181;DHT22;38158;53.338;6.514;2022-08-14T15:55:56;30.70;54.80
52181;DHT22;38158;53.338;6.514;2022-08-14T15:58:23;30.80;54.90
52181;DHT22;38158;53.338;6.514;2022-08-14T16:00:49;30.70;55.40
52181;DHT22;38158;53.338;6.514;2022-08-14T16:03:35;30.60;54.90
52181;DHT22;38158;53.338;6.514;2022-08-14T16:06:03;30.50;55.10
52181;DHT22;38158;53.338;6.514;2022-08-14T16:08:30;30.50;55.10
52181;DHT22;38158;53.338;6.514;2022-08-14T16:10:57;30.60;55.80